KADM/ADM METAR and TAF weather

Enter ICAO airport designator
Station Type Date Time Source
KADM METAR 2019/06/16 06:55 UTC NOAA

KADM 160655Z AUTO 29009G18KT 2SM +TSRA BKN011 BKN019 OVC033 19/18 A2993 RMK AO2 LTG DSNT ALQS P0072 T01880179


Station Type Date Time Source
KADM Decoded METAR 2019/06/16 06:55 UTC NOAA

Ardmore, Ardmore Municipal Airport, OK, United States (KADM) 34-18-11N 097-01-10W
Jun 16, 2019 - 02:55 AM EDT / 2019.06.16 0655 UTC
Wind: from the WNW (290 degrees) at 10 MPH (9 KT) gusting to 21 MPH (18 KT):0
Visibility: 2 mile(s):0
Sky conditions: overcast
Weather: heavy rain with thunder; Lightning observed
Precipitation last hour: 0.72 inches
Temperature: 65.8 F (18.8 C)
Dew Point: 64.2 F (17.9 C)
Relative Humidity: 94%
Pressure (altimeter): 29.93 in. Hg (1013 hPa)
ob: KADM 160655Z AUTO 29009G18KT 2SM +TSRA BKN011 BKN019 OVC033 19/18 A2993 RMK AO2 LTG DSNT ALQS P0072 T01880179
cycle: 7

Station Type Date Time Source
KADM TAF UTC NOAA

Error!

Example: see airport list